sensor_id;sensor_type;location;lat;lon;timestamp;pressure;altitude;pressure_sealevel;temperature;humidity
4024;BME280;2026;51.002;13.668;2023-01-27T00:00:30;99494.59;;;-2.07;97.20
4024;BME280;2026;51.002;13.668;2023-01-27T00:05:33;99486.25;;;-1.99;97.93
4024;BME280;2026;51.002;13.668;2023-01-27T00:10:36;99488.81;;;-1.87;97.12
4024;BME280;2026;51.002;13.668;2023-01-27T00:15:40;99483.38;;;-2.06;98.43
4024;BME280;2026;51.002;13.668;2023-01-27T00:20:43;99485.09;;;-2.06;98.36
4024;BME280;2026;51.002;13.668;2023-01-27T00:26:05;99478.56;;;-1.99;98.80
4024;BME280;2026;51.002;13.668;2023-01-27T00:31:11;99469.91;;;-1.98;98.83
4024;BME280;2026;51.002;13.668;2023-01-27T00:36:32;99479.97;;;-1.95;98.67
4024;BME280;2026;51.002;13.668;2023-01-27T00:41:35;99479.72;;;-1.92;98.32
4024;BME280;2026;51.002;13.668;2023-01-27T00:46:40;99483.00;;;-2.01;97.92
4024;BME280;2026;51.002;13.668;2023-01-27T00:51:43;99486.06;;;-2.19;98.53
4024;BME280;2026;51.002;13.668;2023-01-27T00:56:46;99486.28;;;-2.22;99.27
4024;BME280;2026;51.002;13.668;2023-01-27T01:01:51;99488.94;;;-1.89;98.38
4024;BME280;2026;51.002;13.668;2023-01-27T01:06:54;99484.75;;;-2.01;98.26
4024;BME280;2026;51.002;13.668;2023-01-27T01:11:58;99483.91;;;-1.91;97.52
4024;BME280;2026;51.002;13.668;2023-01-27T01:17:02;99485.53;;;-1.90;97.50
4024;BME280;2026;51.002;13.668;2023-01-27T01:22:05;99486.63;;;-1.92;97.17
4024;BME280;2026;51.002;13.668;2023-01-27T01:27:08;99490.28;;;-2.18;96.46
4024;BME280;2026;51.002;13.668;2023-01-27T01:32:12;99494.22;;;-2.02;96.01
4024;BME280;2026;51.002;13.668;2023-01-27T01:37:15;99491.81;;;-1.71;94.90
4024;BME280;2026;51.002;13.668;2023-01-27T01:42:18;99482.34;;;-1.38;94.67
4024;BME280;2026;51.002;13.668;2023-01-27T01:47:23;99485.84;;;-1.60;94.24
4024;BME280;2026;51.002;13.668;2023-01-27T01:52:26;99479.28;;;-1.31;93.30
4024;BME280;2026;51.002;13.668;2023-01-27T01:57:32;99487.09;;;-1.22;92.60
4024;BME280;2026;51.002;13.668;2023-01-27T02:02:40;99495.19;;;-1.70;92.50
4024;BME280;2026;51.002;13.668;2023-01-27T02:07:46;99488.34;;;-1.81;94.59
4024;BME280;2026;51.002;13.668;2023-01-27T02:12:57;99498.06;;;-1.52;94.00
4024;BME280;2026;51.002;13.668;2023-01-27T02:18:01;99487.94;;;-1.32;93.28
4024;BME280;2026;51.002;13.668;2023-01-27T02:23:15;99490.06;;;-1.38;93.52
4024;BME280;2026;51.002;13.668;2023-01-27T02:28:25;99500.34;;;-1.70;94.35
4024;BME280;2026;51.002;13.668;2023-01-27T02:33:29;99498.69;;;-1.60;94.15
4024;BME280;2026;51.002;13.668;2023-01-27T02:38:35;99492.75;;;-1.72;95.33
4024;BME280;2026;51.002;13.668;2023-01-27T02:43:40;99500.75;;;-1.86;94.64
4024;BME280;2026;51.002;13.668;2023-01-27T02:48:43;99501.22;;;-1.93;95.46
4024;BME280;2026;51.002;13.668;2023-01-27T02:53:46;99515.22;;;-1.85;95.49
4024;BME280;2026;51.002;13.668;2023-01-27T02:58:51;99515.69;;;-1.80;95.26
4024;BME280;2026;51.002;13.668;2023-01-27T03:04:00;99513.53;;;-1.64;94.84
4024;BME280;2026;51.002;13.668;2023-01-27T03:09:04;99517.16;;;-1.66;94.35
4024;BME280;2026;51.002;13.668;2023-01-27T03:14:09;99513.78;;;-1.67;94.67
4024;BME280;2026;51.002;13.668;2023-01-27T03:19:13;99505.84;;;-1.75;94.29
4024;BME280;2026;51.002;13.668;2023-01-27T03:24:16;99509.00;;;-1.39;94.29
4024;BME280;2026;51.002;13.668;2023-01-27T03:29:22;99520.38;;;-1.41;93.06
4024;BME280;2026;51.002;13.668;2023-01-27T03:34:42;99520.56;;;-1.77;95.08
4024;BME280;2026;51.002;13.668;2023-01-27T03:39:52;99517.78;;;-1.85;94.99
4024;BME280;2026;51.002;13.668;2023-01-27T03:45:13;99517.53;;;-1.71;95.25
4024;BME280;2026;51.002;13.668;2023-01-27T03:50:34;99520.38;;;-1.85;94.45
4024;BME280;2026;51.002;13.668;2023-01-27T03:55:38;99519.91;;;-1.91;94.53
4024;BME280;2026;51.002;13.668;2023-01-27T04:00:43;99532.31;;;-1.96;94.68
4024;BME280;2026;51.002;13.668;2023-01-27T04:05:46;99535.31;;;-2.13;96.19
4024;BME280;2026;51.002;13.668;2023-01-27T04:11:07;99531.13;;;-1.80;97.45
4024;BME280;2026;51.002;13.668;2023-01-27T04:16:30;99523.72;;;-1.73;97.44
4024;BME280;2026;51.002;13.668;2023-01-27T04:21:34;99530.91;;;-2.11;98.88
4024;BME280;2026;51.002;13.668;2023-01-27T04:26:37;99527.38;;;-2.22;98.97
4024;BME280;2026;51.002;13.668;2023-01-27T04:31:43;99520.50;;;-2.33;100.00
4024;BME280;2026;51.002;13.668;2023-01-27T04:36:46;99519.00;;;-2.12;100.00
4024;BME280;2026;51.002;13.668;2023-01-27T04:41:50;99514.31;;;-2.07;100.00
4024;BME280;2026;51.002;13.668;2023-01-27T04:46:55;99518.75;;;-2.21;100.00
4024;BME280;2026;51.002;13.668;2023-01-27T04:51:57;99513.22;;;-1.93;100.00
4024;BME280;2026;51.002;13.668;2023-01-27T04:57:00;99522.88;;;-1.63;100.00
4024;BME280;2026;51.002;13.668;2023-01-27T05:02:05;99515.69;;;-1.80;98.82
4024;BME280;2026;51.002;13.668;2023-01-27T05:07:08;99512.75;;;-1.76;99.55
4024;BME280;2026;51.002;13.668;2023-01-27T05:12:11;99521.88;;;-1.83;99.04
4024;BME280;2026;51.002;13.668;2023-01-27T05:17:16;99514.31;;;-1.52;98.89
4024;BME280;2026;51.002;13.668;2023-01-27T05:22:18;99534.13;;;-1.64;97.98
4024;BME280;2026;51.002;13.668;2023-01-27T05:27:22;99536.22;;;-1.69;98.90
4024;BME280;2026;51.002;13.668;2023-01-27T05:32:26;99546.31;;;-2.11;99.75
4024;BME280;2026;51.002;13.668;2023-01-27T05:37:29;99537.09;;;-2.14;100.00
4024;BME280;2026;51.002;13.668;2023-01-27T05:42:32;99547.25;;;-2.01;100.00
4024;BME280;2026;51.002;13.668;2023-01-27T05:47:36;99547.69;;;-1.84;100.00
4024;BME280;2026;51.002;13.668;2023-01-27T05:52:39;99553.53;;;-2.05;100.00
4024;BME280;2026;51.002;13.668;2023-01-27T05:57:42;99566.72;;;-1.87;100.00
4024;BME280;2026;51.002;13.668;2023-01-27T06:02:46;99558.63;;;-1.59;100.00
4024;BME280;2026;51.002;13.668;2023-01-27T06:07:49;99566.06;;;-2.00;100.00
4024;BME280;2026;51.002;13.668;2023-01-27T06:12:52;99553.78;;;-2.08;100.00
4024;BME280;2026;51.002;13.668;2023-01-27T06:17:57;99560.34;;;-2.04;100.00
4024;BME280;2026;51.002;13.668;2023-01-27T06:23:00;99572.72;;;-2.09;100.00
4024;BME280;2026;51.002;13.668;2023-01-27T06:28:04;99574.94;;;-2.05;100.00
4024;BME280;2026;51.002;13.668;2023-01-27T06:33:09;99584.03;;;-2.12;100.00
4024;BME280;2026;51.002;13.668;2023-01-27T06:38:15;99577.84;;;-1.98;100.00
4024;BME280;2026;51.002;13.668;2023-01-27T06:43:18;99583.91;;;-1.99;100.00
4024;BME280;2026;51.002;13.668;2023-01-27T06:48:23;99587.22;;;-1.97;100.00
4024;BME280;2026;51.002;13.668;2023-01-27T06:53:26;99585.31;;;-1.72;100.00
4024;BME280;2026;51.002;13.668;2023-01-27T06:58:29;99588.19;;;-1.42;100.00
4024;BME280;2026;51.002;13.668;2023-01-27T07:03:34;99598.88;;;-1.70;100.00
4024;BME280;2026;51.002;13.668;2023-01-27T07:08:37;99596.03;;;-1.55;100.00
4024;BME280;2026;51.002;13.668;2023-01-27T07:13:40;99611.66;;;-1.36;100.00
4024;BME280;2026;51.002;13.668;2023-01-27T07:18:45;99605.44;;;-1.88;100.00
4024;BME280;2026;51.002;13.668;2023-01-27T07:23:47;99613.00;;;-1.87;100.00
4024;BME280;2026;51.002;13.668;2023-01-27T07:28:51;99616.16;;;-1.72;100.00
4024;BME280;2026;51.002;13.668;2023-01-27T07:33:55;99618.28;;;-1.88;100.00
4024;BME280;2026;51.002;13.668;2023-01-27T07:38:58;99628.56;;;-1.88;100.00
4024;BME280;2026;51.002;13.668;2023-01-27T07:44:01;99629.69;;;-1.58;100.00
4024;BME280;2026;51.002;13.668;2023-01-27T07:49:08;99630.28;;;-1.66;100.00
4024;BME280;2026;51.002;13.668;2023-01-27T07:54:13;99628.88;;;-1.70;100.00
4024;BME280;2026;51.002;13.668;2023-01-27T07:59:16;99626.09;;;-1.67;99.65
4024;BME280;2026;51.002;13.668;2023-01-27T08:04:20;99619.63;;;-1.50;99.73
4024;BME280;2026;51.002;13.668;2023-01-27T08:09:23;99631.81;;;-1.86;100.00
4024;BME280;2026;51.002;13.668;2023-01-27T08:14:26;99640.94;;;-1.82;100.00
4024;BME280;2026;51.002;13.668;2023-01-27T08:19:31;99639.66;;;-1.77;99.50
4024;BME280;2026;51.002;13.668;2023-01-27T08:24:33;99650.75;;;-1.87;99.31
4024;BME280;2026;51.002;13.668;2023-01-27T08:29:37;99660.31;;;-2.01;98.65
4024;BME280;2026;51.002;13.668;2023-01-27T08:34:41;99662.19;;;-1.69;98.49
4024;BME280;2026;51.002;13.668;2023-01-27T08:39:44;99658.00;;;-1.81;98.59
4024;BME280;2026;51.002;13.668;2023-01-27T08:44:47;99663.00;;;-2.03;98.80
4024;BME280;2026;51.002;13.668;2023-01-27T08:49:51;99662.19;;;-1.92;99.38
4024;BME280;2026;51.002;13.668;2023-01-27T08:54:55;99671.88;;;-1.95;99.22
4024;BME280;2026;51.002;13.668;2023-01-27T08:59:58;99668.03;;;-1.90;99.40
4024;BME280;2026;51.002;13.668;2023-01-27T09:05:03;99672.94;;;-1.86;98.98
4024;BME280;2026;51.002;13.668;2023-01-27T09:10:08;99664.28;;;-1.74;98.47
4024;BME280;2026;51.002;13.668;2023-01-27T09:15:20;99671.78;;;-1.94;97.73
4024;BME280;2026;51.002;13.668;2023-01-27T09:20:25;99677.50;;;-1.79;97.52
4024;BME280;2026;51.002;13.668;2023-01-27T09:25:28;99686.38;;;-1.71;96.67
4024;BME280;2026;51.002;13.668;2023-01-27T09:30:31;99701.25;;;-1.41;95.80
4024;BME280;2026;51.002;13.668;2023-01-27T09:35:40;99692.13;;;-1.56;95.93
4024;BME280;2026;51.002;13.668;2023-01-27T09:40:56;99700.06;;;-1.71;97.05
4024;BME280;2026;51.002;13.668;2023-01-27T09:46:20;99705.34;;;-1.61;97.22
4024;BME280;2026;51.002;13.668;2023-01-27T09:51:34;99713.16;;;-1.63;98.25
4024;BME280;2026;51.002;13.668;2023-01-27T09:56:48;99714.06;;;-1.75;97.29
4024;BME280;2026;51.002;13.668;2023-01-27T10:02:01;99711.50;;;-1.29;96.91
4024;BME280;2026;51.002;13.668;2023-01-27T10:12:44;99700.25;;;-1.05;95.18
4024;BME280;2026;51.002;13.668;2023-01-27T10:17:59;99699.69;;;-1.32;95.84
4024;BME280;2026;51.002;13.668;2023-01-27T10:23:14;99691.72;;;-1.06;95.28
4024;BME280;2026;51.002;13.668;2023-01-27T10:28:22;99698.41;;;-1.15;93.48
4024;BME280;2026;51.002;13.668;2023-01-27T10:33:42;99698.81;;;-0.54;92.90
4024;BME280;2026;51.002;13.668;2023-01-27T10:39:00;99692.13;;;-0.57;91.52
4024;BME280;2026;51.002;13.668;2023-01-27T10:44:19;99689.94;;;-0.94;92.22
4024;BME280;2026;51.002;13.668;2023-01-27T10:49:29;99691.84;;;-1.08;93.35
4024;BME280;2026;51.002;13.668;2023-01-27T10:54:38;99700.50;;;-1.09;94.58
4024;BME280;2026;51.002;13.668;2023-01-27T10:59:48;99693.91;;;-0.90;94.76
4024;BME280;2026;51.002;13.668;2023-01-27T11:05:18;99701.91;;;-1.16;95.56
4024;BME280;2026;51.002;13.668;2023-01-27T11:10:29;99701.31;;;-1.08;97.02
4024;BME280;2026;51.002;13.668;2023-01-27T11:15:35;99694.91;;;-1.37;98.19
4024;BME280;2026;51.002;13.668;2023-01-27T11:20:41;99699.25;;;-1.37;98.37
4024;BME280;2026;51.002;13.668;2023-01-27T11:25:52;99700.06;;;-1.25;98.49
4024;BME280;2026;51.002;13.668;2023-01-27T11:31:04;99692.22;;;-1.35;98.75
4024;BME280;2026;51.002;13.668;2023-01-27T11:36:09;99691.75;;;-1.40;98.89
4024;BME280;2026;51.002;13.668;2023-01-27T11:41:14;99689.75;;;-1.14;98.55
4024;BME280;2026;51.002;13.668;2023-01-27T11:46:19;99690.22;;;-1.09;97.98
4024;BME280;2026;51.002;13.668;2023-01-27T11:51:25;99694.41;;;-1.19;97.92
4024;BME280;2026;51.002;13.668;2023-01-27T11:56:35;99686.94;;;-1.11;97.92
4024;BME280;2026;51.002;13.668;2023-01-27T12:01:43;99694.25;;;-0.95;98.15
4024;BME280;2026;51.002;13.668;2023-01-27T12:06:52;99682.84;;;-0.69;96.80
4024;BME280;2026;51.002;13.668;2023-01-27T12:12:19;99668.63;;;-0.96;98.28
4024;BME280;2026;51.002;13.668;2023-01-27T12:17:27;99668.06;;;-0.67;96.82
4024;BME280;2026;51.002;13.668;2023-01-27T12:22:33;99673.50;;;-0.70;96.78
4024;BME280;2026;51.002;13.668;2023-01-27T12:27:41;99657.25;;;-0.28;96.02
4024;BME280;2026;51.002;13.668;2023-01-27T12:32:49;99658.53;;;-0.34;95.21
4024;BME280;2026;51.002;13.668;2023-01-27T12:37:58;99665.47;;;-0.56;95.20
4024;BME280;2026;51.002;13.668;2023-01-27T12:43:09;99658.53;;;-0.34;96.71
4024;BME280;2026;51.002;13.668;2023-01-27T12:48:18;99654.97;;;-0.43;95.72
4024;BME280;2026;51.002;13.668;2023-01-27T12:53:22;99649.38;;;-0.48;97.70
4024;BME280;2026;51.002;13.668;2023-01-27T12:58:35;99662.53;;;-0.84;97.49
4024;BME280;2026;51.002;13.668;2023-01-27T13:03:41;99649.41;;;-0.81;97.52
4024;BME280;2026;51.002;13.668;2023-01-27T13:08:45;99652.03;;;-0.92;98.41
4024;BME280;2026;51.002;13.668;2023-01-27T13:13:50;99652.88;;;-0.70;97.99
4024;BME280;2026;51.002;13.668;2023-01-27T13:18:54;99653.75;;;-0.60;97.92
4024;BME280;2026;51.002;13.668;2023-01-27T13:23:59;99666.34;;;-0.78;96.45
4024;BME280;2026;51.002;13.668;2023-01-27T13:29:12;99653.09;;;-0.41;96.22
4024;BME280;2026;51.002;13.668;2023-01-27T13:34:22;99655.53;;;-0.39;95.54
4024;BME280;2026;51.002;13.668;2023-01-27T13:39:41;99657.19;;;-0.38;95.96
4024;BME280;2026;51.002;13.668;2023-01-27T13:44:50;99657.78;;;-0.67;98.12
4024;BME280;2026;51.002;13.668;2023-01-27T13:50:01;99661.22;;;-0.78;98.98
4024;BME280;2026;51.002;13.668;2023-01-27T13:55:10;99667.34;;;-0.58;98.51
4024;BME280;2026;51.002;13.668;2023-01-27T14:00:19;99666.59;;;-0.48;97.92
4024;BME280;2026;51.002;13.668;2023-01-27T14:05:32;99667.00;;;-0.64;98.44
4024;BME280;2026;51.002;13.668;2023-01-27T14:10:40;99660.63;;;-0.49;98.66
4024;BME280;2026;51.002;13.668;2023-01-27T14:15:49;99664.47;;;-0.43;97.31
4024;BME280;2026;51.002;13.668;2023-01-27T14:21:12;99675.22;;;-0.38;97.29
4024;BME280;2026;51.002;13.668;2023-01-27T14:26:20;99669.03;;;-0.26;97.71
4024;BME280;2026;51.002;13.668;2023-01-27T14:31:40;99680.28;;;0.16;96.97
4024;BME280;2026;51.002;13.668;2023-01-27T14:36:51;99683.22;;;-0.20;97.37
4024;BME280;2026;51.002;13.668;2023-01-27T14:42:01;99697.91;;;-0.32;97.66
4024;BME280;2026;51.002;13.668;2023-01-27T14:47:17;99691.34;;;-0.36;97.66
4024;BME280;2026;51.002;13.668;2023-01-27T14:52:38;99693.69;;;-0.33;98.58
4024;BME280;2026;51.002;13.668;2023-01-27T14:57:49;99701.44;;;-0.33;98.38
4024;BME280;2026;51.002;13.668;2023-01-27T15:03:07;99701.63;;;-0.25;98.14
4024;BME280;2026;51.002;13.668;2023-01-27T15:08:21;99709.78;;;-0.19;98.56
4024;BME280;2026;51.002;13.668;2023-01-27T15:13:43;99706.66;;;0.29;97.24
4024;BME280;2026;51.002;13.668;2023-01-27T15:19:06;99709.63;;;0.25;97.04
4024;BME280;2026;51.002;13.668;2023-01-27T15:24:32;99712.66;;;0.30;96.39
4024;BME280;2026;51.002;13.668;2023-01-27T15:29:39;99715.84;;;-0.09;98.29
4024;BME280;2026;51.002;13.668;2023-01-27T15:34:50;99715.66;;;0.14;97.65
4024;BME280;2026;51.002;13.668;2023-01-27T15:40:04;99723.09;;;0.28;97.73
4024;BME280;2026;51.002;13.668;2023-01-27T15:45:28;99716.25;;;0.49;96.54
4024;BME280;2026;51.002;13.668;2023-01-27T15:50:35;99718.97;;;0.47;97.00
4024;BME280;2026;51.002;13.668;2023-01-27T15:55:46;99731.00;;;0.68;96.34
4024;BME280;2026;51.002;13.668;2023-01-27T16:00:51;99725.44;;;0.72;95.71
4024;BME280;2026;51.002;13.668;2023-01-27T16:06:00;99722.66;;;0.85;94.76
4024;BME280;2026;51.002;13.668;2023-01-27T16:11:34;99718.84;;;0.90;94.84
4024;BME280;2026;51.002;13.668;2023-01-27T16:16:40;99719.34;;;0.83;95.26
4024;BME280;2026;51.002;13.668;2023-01-27T16:21:53;99735.81;;;0.51;96.24
4024;BME280;2026;51.002;13.668;2023-01-27T16:27:05;99735.53;;;0.44;96.65
4024;BME280;2026;51.002;13.668;2023-01-27T16:32:14;99737.09;;;0.67;96.89
4024;BME280;2026;51.002;13.668;2023-01-27T16:37:23;99750.66;;;0.07;98.25
4024;BME280;2026;51.002;13.668;2023-01-27T16:42:30;99749.38;;;0.01;99.74
4024;BME280;2026;51.002;13.668;2023-01-27T16:47:40;99753.94;;;0.09;99.99
4024;BME280;2026;51.002;13.668;2023-01-27T16:52:46;99759.44;;;-0.17;100.00
4024;BME280;2026;51.002;13.668;2023-01-27T16:57:49;99750.53;;;-0.13;100.00
4024;BME280;2026;51.002;13.668;2023-01-27T17:02:55;99758.41;;;0.07;100.00
4024;BME280;2026;51.002;13.668;2023-01-27T17:08:03;99751.63;;;0.37;100.00
4024;BME280;2026;51.002;13.668;2023-01-27T17:13:24;99767.00;;;0.69;98.15
4024;BME280;2026;51.002;13.668;2023-01-27T17:18:27;99777.97;;;0.62;96.62
4024;BME280;2026;51.002;13.668;2023-01-27T17:23:42;99778.81;;;0.41;92.87
4024;BME280;2026;51.002;13.668;2023-01-27T17:28:46;99784.56;;;0.23;94.34
4024;BME280;2026;51.002;13.668;2023-01-27T17:33:55;99775.69;;;0.16;92.89
4024;BME280;2026;51.002;13.668;2023-01-27T17:39:01;99777.06;;;0.20;92.33
4024;BME280;2026;51.002;13.668;2023-01-27T17:44:10;99791.47;;;0.23;94.01
4024;BME280;2026;51.002;13.668;2023-01-27T17:49:15;99798.81;;;0.27;92.37
4024;BME280;2026;51.002;13.668;2023-01-27T17:54:24;99793.00;;;0.25;92.16
4024;BME280;2026;51.002;13.668;2023-01-27T17:59:27;99796.81;;;0.31;90.37
4024;BME280;2026;51.002;13.668;2023-01-27T18:04:35;99802.44;;;0.15;90.73
4024;BME280;2026;51.002;13.668;2023-01-27T18:09:44;99804.47;;;0.21;90.73
4024;BME280;2026;51.002;13.668;2023-01-27T18:14:47;99802.16;;;0.18;90.82
4024;BME280;2026;51.002;13.668;2023-01-27T18:19:52;99806.06;;;0.34;89.84
4024;BME280;2026;51.002;13.668;2023-01-27T18:24:59;99809.41;;;0.24;90.42
4024;BME280;2026;51.002;13.668;2023-01-27T18:30:09;99804.19;;;0.36;90.07
4024;BME280;2026;51.002;13.668;2023-01-27T18:35:21;99813.13;;;0.32;90.68
4024;BME280;2026;51.002;13.668;2023-01-27T18:40:29;99818.81;;;0.14;90.27
4024;BME280;2026;51.002;13.668;2023-01-27T18:45:32;99822.13;;;0.16;91.18
4024;BME280;2026;51.002;13.668;2023-01-27T18:50:39;99823.97;;;-0.07;92.41
4024;BME280;2026;51.002;13.668;2023-01-27T18:55:44;99834.34;;;0.02;92.99
4024;BME280;2026;51.002;13.668;2023-01-27T19:00:48;99834.94;;;0.06;92.66
4024;BME280;2026;51.002;13.668;2023-01-27T19:05:52;99829.59;;;0.19;92.04
4024;BME280;2026;51.002;13.668;2023-01-27T19:10:56;99834.94;;;0.27;92.85
4024;BME280;2026;51.002;13.668;2023-01-27T19:16:00;99839.28;;;0.27;91.90
4024;BME280;2026;51.002;13.668;2023-01-27T19:21:03;99832.44;;;0.16;93.09
4024;BME280;2026;51.002;13.668;2023-01-27T19:26:13;99839.03;;;0.09;93.39
4024;BME280;2026;51.002;13.668;2023-01-27T19:31:18;99848.19;;;0.01;93.09
4024;BME280;2026;51.002;13.668;2023-01-27T19:36:23;99855.75;;;0.36;94.75
4024;BME280;2026;51.002;13.668;2023-01-27T19:41:28;99862.38;;;0.28;93.60
4024;BME280;2026;51.002;13.668;2023-01-27T19:46:32;99853.22;;;0.03;94.40
4024;BME280;2026;51.002;13.668;2023-01-27T19:51:35;99853.06;;;0.16;94.74
4024;BME280;2026;51.002;13.668;2023-01-27T19:56:40;99852.31;;;0.25;94.56
4024;BME280;2026;51.002;13.668;2023-01-27T20:01:43;99859.59;;;0.20;93.70
4024;BME280;2026;51.002;13.668;2023-01-27T20:06:46;99864.16;;;0.28;93.85
4024;BME280;2026;51.002;13.668;2023-01-27T20:11:50;99866.44;;;0.10;94.46
4024;BME280;2026;51.002;13.668;2023-01-27T20:16:53;99877.09;;;-0.16;95.33
4024;BME280;2026;51.002;13.668;2023-01-27T20:21:56;99874.06;;;0.11;94.46
4024;BME280;2026;51.002;13.668;2023-01-27T20:27:03;99881.03;;;-0.01;94.96
4024;BME280;2026;51.002;13.668;2023-01-27T20:32:06;99878.44;;;-0.01;95.17
4024;BME280;2026;51.002;13.668;2023-01-27T20:37:10;99879.34;;;-0.02;94.80
4024;BME280;2026;51.002;13.668;2023-01-27T20:42:14;99878.38;;;0.11;94.97
4024;BME280;2026;51.002;13.668;2023-01-27T20:47:17;99870.63;;;0.22;94.20
4024;BME280;2026;51.002;13.668;2023-01-27T20:52:20;99864.81;;;0.09;94.42
4024;BME280;2026;51.002;13.668;2023-01-27T20:57:27;99874.69;;;0.25;93.67
4024;BME280;2026;51.002;13.668;2023-01-27T21:02:31;99876.34;;;-0.07;94.20
4024;BME280;2026;51.002;13.668;2023-01-27T21:07:34;99879.03;;;0.24;93.43
4024;BME280;2026;51.002;13.668;2023-01-27T21:12:39;99882.00;;;0.20;93.80
4024;BME280;2026;51.002;13.668;2023-01-27T21:17:42;99884.13;;;0.14;94.38
4024;BME280;2026;51.002;13.668;2023-01-27T21:22:44;99882.13;;;0.18;93.82
4024;BME280;2026;51.002;13.668;2023-01-27T21:27:49;99883.94;;;0.27;93.32
4024;BME280;2026;51.002;13.668;2023-01-27T21:32:52;99887.75;;;0.12;94.22
4024;BME280;2026;51.002;13.668;2023-01-27T21:37:55;99885.06;;;0.13;94.71
4024;BME280;2026;51.002;13.668;2023-01-27T21:42:59;99884.09;;;-0.18;95.28
4024;BME280;2026;51.002;13.668;2023-01-27T21:48:19;99881.44;;;0.16;94.91
4024;BME280;2026;51.002;13.668;2023-01-27T21:53:22;99887.06;;;0.10;93.77
4024;BME280;2026;51.002;13.668;2023-01-27T21:58:27;99887.75;;;0.12;94.08
4024;BME280;2026;51.002;13.668;2023-01-27T22:03:30;99872.94;;;0.25;94.05
4024;BME280;2026;51.002;13.668;2023-01-27T22:08:33;99873.13;;;0.34;93.83
4024;BME280;2026;51.002;13.668;2023-01-27T22:13:37;99870.81;;;0.52;92.96
4024;BME280;2026;51.002;13.668;2023-01-27T22:18:41;99881.34;;;0.60;92.84
4024;BME280;2026;51.002;13.668;2023-01-27T22:23:44;99876.41;;;0.78;91.91
4024;BME280;2026;51.002;13.668;2023-01-27T22:28:49;99884.59;;;0.83;91.55
4024;BME280;2026;51.002;13.668;2023-01-27T22:33:52;99882.47;;;0.67;91.92
4024;BME280;2026;51.002;13.668;2023-01-27T22:38:55;99883.22;;;0.58;92.64
4024;BME280;2026;51.002;13.668;2023-01-27T22:44:00;99874.38;;;0.61;92.54
4024;BME280;2026;51.002;13.668;2023-01-27T22:49:03;99878.81;;;0.70;92.44
4024;BME280;2026;51.002;13.668;2023-01-27T22:54:06;99876.28;;;0.58;92.65
4024;BME280;2026;51.002;13.668;2023-01-27T22:59:12;99880.63;;;0.79;92.27
4024;BME280;2026;51.002;13.668;2023-01-27T23:04:15;99879.69;;;0.80;93.04
4024;BME280;2026;51.002;13.668;2023-01-27T23:09:18;99881.38;;;0.91;92.29
4024;BME280;2026;51.002;13.668;2023-01-27T23:14:22;99882.19;;;0.92;92.13
4024;BME280;2026;51.002;13.668;2023-01-27T23:19:25;99875.91;;;0.84;92.77
4024;BME280;2026;51.002;13.668;2023-01-27T23:24:28;99874.06;;;0.75;93.11
4024;BME280;2026;51.002;13.668;2023-01-27T23:29:32;99866.09;;;0.36;95.18
4024;BME280;2026;51.002;13.668;2023-01-27T23:34:35;99873.81;;;0.57;94.98
4024;BME280;2026;51.002;13.668;2023-01-27T23:39:38;99869.97;;;0.72;94.32
4024;BME280;2026;51.002;13.668;2023-01-27T23:44:47;99866.63;;;0.51;96.01
4024;BME280;2026;51.002;13.668;2023-01-27T23:49:50;99872.34;;;0.54;96.42
4024;BME280;2026;51.002;13.668;2023-01-27T23:54:53;99871.38;;;0.77;95.73
4024;BME280;2026;51.002;13.668;2023-01-27T23:59:57;99873.81;;;0.57;96.61
